sensor_id;sensor_type;location;lat;lon;timestamp;temperature;humidity
33564;DHT22;19894;48.452;11.494;2022-07-10T00:02:11;22.50;52.50
33564;DHT22;19894;48.452;11.494;2022-07-10T00:04:36;22.50;52.60
33564;DHT22;19894;48.452;11.494;2022-07-10T00:07:02;22.50;52.60
33564;DHT22;19894;48.452;11.494;2022-07-10T00:09:29;22.50;52.70
33564;DHT22;19894;48.452;11.494;2022-07-10T00:11:55;22.50;52.80
33564;DHT22;19894;48.452;11.494;2022-07-10T00:14:20;22.50;52.90
33564;DHT22;19894;48.452;11.494;2022-07-10T00:16:46;22.50;52.90
33564;DHT22;19894;48.452;11.494;2022-07-10T00:19:11;22.50;53.10
33564;DHT22;19894;48.452;11.494;2022-07-10T00:21:37;22.50;53.10
33564;DHT22;19894;48.452;11.494;2022-07-10T00:24:03;22.50;53.30
33564;DHT22;19894;48.452;11.494;2022-07-10T00:26:29;22.50;53.40
33564;DHT22;19894;48.452;11.494;2022-07-10T00:28:55;22.50;53.50
33564;DHT22;19894;48.452;11.494;2022-07-10T00:31:20;22.50;53.50
33564;DHT22;19894;48.452;11.494;2022-07-10T00:33:46;22.50;53.60
33564;DHT22;19894;48.452;11.494;2022-07-10T00:36:13;22.50;53.60
33564;DHT22;19894;48.452;11.494;2022-07-10T00:38:39;22.50;53.60
33564;DHT22;19894;48.452;11.494;2022-07-10T00:41:05;22.50;53.70
33564;DHT22;19894;48.452;11.494;2022-07-10T00:43:31;22.50;53.60
33564;DHT22;19894;48.452;11.494;2022-07-10T00:46:15;22.50;53.70
33564;DHT22;19894;48.452;11.494;2022-07-10T00:48:46;22.50;53.90
33564;DHT22;19894;48.452;11.494;2022-07-10T00:51:12;22.50;54.00
33564;DHT22;19894;48.452;11.494;2022-07-10T00:53:37;22.50;54.00
33564;DHT22;19894;48.452;11.494;2022-07-10T00:56:04;22.50;54.00
33564;DHT22;19894;48.452;11.494;2022-07-10T00:58:30;22.50;54.10
33564;DHT22;19894;48.452;11.494;2022-07-10T01:00:56;22.50;54.20
33564;DHT22;19894;48.452;11.494;2022-07-10T01:03:21;22.50;54.20
33564;DHT22;19894;48.452;11.494;2022-07-10T01:05:47;22.50;54.30
33564;DHT22;19894;48.452;11.494;2022-07-10T01:08:13;22.50;54.40
33564;DHT22;19894;48.452;11.494;2022-07-10T01:10:38;22.50;55.00
33564;DHT22;19894;48.452;11.494;2022-07-10T01:13:04;22.50;54.60
33564;DHT22;19894;48.452;11.494;2022-07-10T01:15:30;22.50;54.70
33564;DHT22;19894;48.452;11.494;2022-07-10T01:17:56;22.50;54.70
33564;DHT22;19894;48.452;11.494;2022-07-10T01:20:32;22.50;54.80
33564;DHT22;19894;48.452;11.494;2022-07-10T01:23:02;22.50;55.00
33564;DHT22;19894;48.452;11.494;2022-07-10T01:25:27;22.50;54.90
33564;DHT22;19894;48.452;11.494;2022-07-10T01:27:53;22.50;55.00
33564;DHT22;19894;48.452;11.494;2022-07-10T01:30:19;22.50;55.50
33564;DHT22;19894;48.452;11.494;2022-07-10T01:32:46;22.60;55.10
33564;DHT22;19894;48.452;11.494;2022-07-10T01:35:12;22.60;55.10
33564;DHT22;19894;48.452;11.494;2022-07-10T01:37:39;22.50;55.00
33564;DHT22;19894;48.452;11.494;2022-07-10T01:40:06;22.50;55.00
33564;DHT22;19894;48.452;11.494;2022-07-10T01:42:32;22.60;55.00
33564;DHT22;19894;48.452;11.494;2022-07-10T01:44:58;22.50;55.00
33564;DHT22;19894;48.452;11.494;2022-07-10T01:47:23;22.50;55.00
33564;DHT22;19894;48.452;11.494;2022-07-10T01:49:51;22.60;55.00
33564;DHT22;19894;48.452;11.494;2022-07-10T01:52:18;22.50;54.90
33564;DHT22;19894;48.452;11.494;2022-07-10T01:54:43;22.50;55.00
33564;DHT22;19894;48.452;11.494;2022-07-10T01:57:09;22.50;54.90
33564;DHT22;19894;48.452;11.494;2022-07-10T01:59:34;22.50;54.90
33564;DHT22;19894;48.452;11.494;2022-07-10T02:02:00;22.50;54.90
33564;DHT22;19894;48.452;11.494;2022-07-10T02:04:25;22.50;54.90
33564;DHT22;19894;48.452;11.494;2022-07-10T02:07:07;22.50;55.00
33564;DHT22;19894;48.452;11.494;2022-07-10T02:09:33;22.50;55.00
33564;DHT22;19894;48.452;11.494;2022-07-10T02:11:58;22.50;55.10
33564;DHT22;19894;48.452;11.494;2022-07-10T02:14:24;22.50;55.20
33564;DHT22;19894;48.452;11.494;2022-07-10T02:16:49;22.50;55.30
33564;DHT22;19894;48.452;11.494;2022-07-10T02:19:15;22.50;55.30
33564;DHT22;19894;48.452;11.494;2022-07-10T02:21:41;22.50;55.30
33564;DHT22;19894;48.452;11.494;2022-07-10T02:24:06;22.60;55.40
33564;DHT22;19894;48.452;11.494;2022-07-10T02:26:32;22.50;55.30
33564;DHT22;19894;48.452;11.494;2022-07-10T02:28:58;22.50;55.30
33564;DHT22;19894;48.452;11.494;2022-07-10T02:31:23;22.60;55.40
33564;DHT22;19894;48.452;11.494;2022-07-10T02:33:49;22.60;55.40
33564;DHT22;19894;48.452;11.494;2022-07-10T02:36:14;22.60;55.40
33564;DHT22;19894;48.452;11.494;2022-07-10T02:38:40;22.60;55.30
33564;DHT22;19894;48.452;11.494;2022-07-10T02:41:05;22.60;55.30
33564;DHT22;19894;48.452;11.494;2022-07-10T02:43:31;22.60;55.20
33564;DHT22;19894;48.452;11.494;2022-07-10T02:45:57;22.60;55.20
33564;DHT22;19894;48.452;11.494;2022-07-10T02:48:22;22.60;55.10
33564;DHT22;19894;48.452;11.494;2022-07-10T02:50:48;22.60;55.10
33564;DHT22;19894;48.452;11.494;2022-07-10T02:53:13;22.60;55.10
33564;DHT22;19894;48.452;11.494;2022-07-10T02:55:39;22.60;55.00
33564;DHT22;19894;48.452;11.494;2022-07-10T02:58:04;22.50;54.90
33564;DHT22;19894;48.452;11.494;2022-07-10T03:00:30;22.50;54.90
33564;DHT22;19894;48.452;11.494;2022-07-10T03:02:56;22.50;54.90
33564;DHT22;19894;48.452;11.494;2022-07-10T03:05:22;22.50;54.80
33564;DHT22;19894;48.452;11.494;2022-07-10T03:07:48;22.50;54.80
33564;DHT22;19894;48.452;11.494;2022-07-10T03:10:13;22.50;54.80
33564;DHT22;19894;48.452;11.494;2022-07-10T03:12:39;22.50;54.80
33564;DHT22;19894;48.452;11.494;2022-07-10T03:15:05;22.50;54.90
33564;DHT22;19894;48.452;11.494;2022-07-10T03:17:32;22.50;54.80
33564;DHT22;19894;48.452;11.494;2022-07-10T03:19:57;22.50;54.80
33564;DHT22;19894;48.452;11.494;2022-07-10T03:22:23;22.50;54.80
33564;DHT22;19894;48.452;11.494;2022-07-10T03:24:48;22.60;54.90
33564;DHT22;19894;48.452;11.494;2022-07-10T03:27:14;22.50;54.80
33564;DHT22;19894;48.452;11.494;2022-07-10T03:29:40;22.50;54.70
33564;DHT22;19894;48.452;11.494;2022-07-10T03:32:06;22.50;54.70
33564;DHT22;19894;48.452;11.494;2022-07-10T03:34:32;22.60;54.70
33564;DHT22;19894;48.452;11.494;2022-07-10T03:36:59;22.60;54.70
33564;DHT22;19894;48.452;11.494;2022-07-10T03:39:26;22.60;54.60
33564;DHT22;19894;48.452;11.494;2022-07-10T03:41:51;22.60;54.60
33564;DHT22;19894;48.452;11.494;2022-07-10T03:44:17;22.60;54.60
33564;DHT22;19894;48.452;11.494;2022-07-10T03:46:42;22.60;54.50
33564;DHT22;19894;48.452;11.494;2022-07-10T03:49:08;22.60;54.90
33564;DHT22;19894;48.452;11.494;2022-07-10T03:51:33;22.50;54.40
33564;DHT22;19894;48.452;11.494;2022-07-10T03:53:59;22.50;54.40
33564;DHT22;19894;48.452;11.494;2022-07-10T03:56:24;22.50;54.40
33564;DHT22;19894;48.452;11.494;2022-07-10T03:59:09;22.50;54.40
33564;DHT22;19894;48.452;11.494;2022-07-10T04:01:34;22.50;54.90
33564;DHT22;19894;48.452;11.494;2022-07-10T04:04:00;22.50;54.40
33564;DHT22;19894;48.452;11.494;2022-07-10T04:06:25;22.50;54.40
33564;DHT22;19894;48.452;11.494;2022-07-10T04:08:51;22.50;54.40
33564;DHT22;19894;48.452;11.494;2022-07-10T04:11:17;22.50;54.40
33564;DHT22;19894;48.452;11.494;2022-07-10T04:13:42;22.50;54.40
33564;DHT22;19894;48.452;11.494;2022-07-10T04:16:08;22.50;54.30
33564;DHT22;19894;48.452;11.494;2022-07-10T04:18:41;22.50;54.40
33564;DHT22;19894;48.452;11.494;2022-07-10T04:21:07;22.50;54.40
33564;DHT22;19894;48.452;11.494;2022-07-10T04:23:33;22.50;54.40
33564;DHT22;19894;48.452;11.494;2022-07-10T04:25:59;22.50;54.40
33564;DHT22;19894;48.452;11.494;2022-07-10T04:28:25;22.50;54.40
33564;DHT22;19894;48.452;11.494;2022-07-10T04:30:51;22.50;54.40
33564;DHT22;19894;48.452;11.494;2022-07-10T04:33:16;22.50;54.40
33564;DHT22;19894;48.452;11.494;2022-07-10T04:35:42;22.60;54.40
33564;DHT22;19894;48.452;11.494;2022-07-10T04:38:08;22.60;54.40
33564;DHT22;19894;48.452;11.494;2022-07-10T04:40:33;22.60;54.40
33564;DHT22;19894;48.452;11.494;2022-07-10T04:42:59;22.60;54.40
33564;DHT22;19894;48.452;11.494;2022-07-10T04:45:24;22.50;54.40
33564;DHT22;19894;48.452;11.494;2022-07-10T04:47:50;22.60;54.40
33564;DHT22;19894;48.452;11.494;2022-07-10T04:50:15;22.60;54.40
33564;DHT22;19894;48.452;11.494;2022-07-10T04:52:41;22.60;54.40
33564;DHT22;19894;48.452;11.494;2022-07-10T04:55:07;22.60;54.40
33564;DHT22;19894;48.452;11.494;2022-07-10T04:57:33;22.50;54.40
33564;DHT22;19894;48.452;11.494;2022-07-10T04:59:58;22.60;54.40
33564;DHT22;19894;48.452;11.494;2022-07-10T05:02:25;22.50;54.50
33564;DHT22;19894;48.452;11.494;2022-07-10T05:04:50;22.50;54.50
33564;DHT22;19894;48.452;11.494;2022-07-10T05:07:16;22.50;54.50
33564;DHT22;19894;48.452;11.494;2022-07-10T05:09:41;22.50;54.60
33564;DHT22;19894;48.452;11.494;2022-07-10T05:12:07;22.50;54.60
33564;DHT22;19894;48.452;11.494;2022-07-10T05:14:33;22.50;54.70
33564;DHT22;19894;48.452;11.494;2022-07-10T05:16:58;22.50;54.60
33564;DHT22;19894;48.452;11.494;2022-07-10T05:19:24;22.50;54.60
33564;DHT22;19894;48.452;11.494;2022-07-10T05:21:50;22.50;54.80
33564;DHT22;19894;48.452;11.494;2022-07-10T05:24:15;22.50;54.70
33564;DHT22;19894;48.452;11.494;2022-07-10T05:26:41;22.50;54.70
33564;DHT22;19894;48.452;11.494;2022-07-10T05:29:06;22.50;54.80
33564;DHT22;19894;48.452;11.494;2022-07-10T05:31:32;22.50;54.80
33564;DHT22;19894;48.452;11.494;2022-07-10T05:33:58;22.50;54.90
33564;DHT22;19894;48.452;11.494;2022-07-10T05:36:24;22.50;54.90
33564;DHT22;19894;48.452;11.494;2022-07-10T05:38:49;22.50;55.00
33564;DHT22;19894;48.452;11.494;2022-07-10T05:41:15;22.60;55.00
33564;DHT22;19894;48.452;11.494;2022-07-10T05:43:41;22.60;55.00
33564;DHT22;19894;48.452;11.494;2022-07-10T05:46:07;22.50;55.00
33564;DHT22;19894;48.452;11.494;2022-07-10T05:48:32;22.50;55.00
33564;DHT22;19894;48.452;11.494;2022-07-10T05:50:58;22.60;54.90
33564;DHT22;19894;48.452;11.494;2022-07-10T05:53:24;22.60;54.90
33564;DHT22;19894;48.452;11.494;2022-07-10T05:55:49;22.50;54.90
33564;DHT22;19894;48.452;11.494;2022-07-10T05:58:16;22.60;55.00
33564;DHT22;19894;48.452;11.494;2022-07-10T06:00:41;22.60;55.00
33564;DHT22;19894;48.452;11.494;2022-07-10T06:03:11;22.60;55.00
33564;DHT22;19894;48.452;11.494;2022-07-10T06:05:37;22.50;55.00
33564;DHT22;19894;48.452;11.494;2022-07-10T06:08:03;22.50;54.90
33564;DHT22;19894;48.452;11.494;2022-07-10T06:10:29;22.60;55.00
33564;DHT22;19894;48.452;11.494;2022-07-10T06:12:54;22.50;55.00
33564;DHT22;19894;48.452;11.494;2022-07-10T06:15:20;22.50;55.00
33564;DHT22;19894;48.452;11.494;2022-07-10T06:17:46;22.50;54.90
33564;DHT22;19894;48.452;11.494;2022-07-10T06:20:11;22.50;55.00
33564;DHT22;19894;48.452;11.494;2022-07-10T06:22:37;22.50;55.00
33564;DHT22;19894;48.452;11.494;2022-07-10T06:25:05;22.50;55.00
33564;DHT22;19894;48.452;11.494;2022-07-10T06:27:32;22.50;55.00
33564;DHT22;19894;48.452;11.494;2022-07-10T06:29:58;22.50;55.00
33564;DHT22;19894;48.452;11.494;2022-07-10T06:32:24;22.50;55.00
33564;DHT22;19894;48.452;11.494;2022-07-10T06:34:53;22.50;55.10
33564;DHT22;19894;48.452;11.494;2022-07-10T06:37:20;22.50;55.00
33564;DHT22;19894;48.452;11.494;2022-07-10T06:39:46;22.50;55.00
33564;DHT22;19894;48.452;11.494;2022-07-10T06:42:15;22.60;55.10
33564;DHT22;19894;48.452;11.494;2022-07-10T06:44:42;22.50;55.00
33564;DHT22;19894;48.452;11.494;2022-07-10T06:47:08;22.60;55.10
33564;DHT22;19894;48.452;11.494;2022-07-10T06:49:53;22.60;55.00
33564;DHT22;19894;48.452;11.494;2022-07-10T06:52:18;22.60;55.10
33564;DHT22;19894;48.452;11.494;2022-07-10T06:54:44;22.50;55.00
33564;DHT22;19894;48.452;11.494;2022-07-10T06:57:10;22.60;55.10
33564;DHT22;19894;48.452;11.494;2022-07-10T06:59:35;22.60;55.00
33564;DHT22;19894;48.452;11.494;2022-07-10T07:02:01;22.60;55.00
33564;DHT22;19894;48.452;11.494;2022-07-10T07:04:27;22.60;55.00
33564;DHT22;19894;48.452;11.494;2022-07-10T07:06:52;22.60;55.00
33564;DHT22;19894;48.452;11.494;2022-07-10T07:09:18;22.60;55.00
33564;DHT22;19894;48.452;11.494;2022-07-10T07:11:43;22.50;55.00
33564;DHT22;19894;48.452;11.494;2022-07-10T07:14:09;22.50;55.00
33564;DHT22;19894;48.452;11.494;2022-07-10T07:16:34;22.50;55.00
33564;DHT22;19894;48.452;11.494;2022-07-10T07:19:05;22.50;55.00
33564;DHT22;19894;48.452;11.494;2022-07-10T07:21:31;22.50;55.00
33564;DHT22;19894;48.452;11.494;2022-07-10T07:24:16;22.50;55.00
33564;DHT22;19894;48.452;11.494;2022-07-10T07:26:47;22.50;55.00
33564;DHT22;19894;48.452;11.494;2022-07-10T07:29:16;22.50;54.90
33564;DHT22;19894;48.452;11.494;2022-07-10T07:31:42;22.50;54.90
33564;DHT22;19894;48.452;11.494;2022-07-10T07:34:08;22.50;54.80
33564;DHT22;19894;48.452;11.494;2022-07-10T07:36:34;22.50;54.70
33564;DHT22;19894;48.452;11.494;2022-07-10T07:39:00;22.50;54.70
33564;DHT22;19894;48.452;11.494;2022-07-10T07:41:25;22.50;54.70
33564;DHT22;19894;48.452;11.494;2022-07-10T07:43:51;22.50;54.70
33564;DHT22;19894;48.452;11.494;2022-07-10T07:46:18;22.50;54.60
33564;DHT22;19894;48.452;11.494;2022-07-10T07:48:44;22.50;54.50
33564;DHT22;19894;48.452;11.494;2022-07-10T07:51:09;22.50;54.40
33564;DHT22;19894;48.452;11.494;2022-07-10T07:53:35;22.50;54.40
33564;DHT22;19894;48.452;11.494;2022-07-10T07:56:00;22.60;54.40
33564;DHT22;19894;48.452;11.494;2022-07-10T07:58:26;22.60;54.40
33564;DHT22;19894;48.452;11.494;2022-07-10T08:00:51;22.50;54.30
33564;DHT22;19894;48.452;11.494;2022-07-10T08:03:17;22.60;54.30
33564;DHT22;19894;48.452;11.494;2022-07-10T08:05:43;22.60;54.20
33564;DHT22;19894;48.452;11.494;2022-07-10T08:08:08;22.60;54.20
33564;DHT22;19894;48.452;11.494;2022-07-10T08:10:36;22.60;54.60
33564;DHT22;19894;48.452;11.494;2022-07-10T08:13:03;22.60;54.10
33564;DHT22;19894;48.452;11.494;2022-07-10T08:15:29;22.60;54.10
33564;DHT22;19894;48.452;11.494;2022-07-10T08:17:57;22.50;54.00
33564;DHT22;19894;48.452;11.494;2022-07-10T08:20:24;22.50;53.90
33564;DHT22;19894;48.452;11.494;2022-07-10T08:22:51;22.50;54.00
33564;DHT22;19894;48.452;11.494;2022-07-10T08:25:18;22.50;53.90
33564;DHT22;19894;48.452;11.494;2022-07-10T08:27:44;22.50;53.90
33564;DHT22;19894;48.452;11.494;2022-07-10T08:30:10;22.50;53.80
33564;DHT22;19894;48.452;11.494;2022-07-10T08:32:37;22.50;53.80
33564;DHT22;19894;48.452;11.494;2022-07-10T08:35:03;22.50;53.70
33564;DHT22;19894;48.452;11.494;2022-07-10T08:37:30;22.50;53.70
33564;DHT22;19894;48.452;11.494;2022-07-10T08:39:55;22.50;53.70
33564;DHT22;19894;48.452;11.494;2022-07-10T08:42:21;22.50;53.70
33564;DHT22;19894;48.452;11.494;2022-07-10T08:44:48;22.50;53.50
33564;DHT22;19894;48.452;11.494;2022-07-10T08:47:13;22.50;53.50
33564;DHT22;19894;48.452;11.494;2022-07-10T08:49:46;22.50;53.40
33564;DHT22;19894;48.452;11.494;2022-07-10T08:52:34;22.50;53.30
33564;DHT22;19894;48.452;11.494;2022-07-10T08:55:04;22.50;53.20
33564;DHT22;19894;48.452;11.494;2022-07-10T08:57:30;22.50;53.10
33564;DHT22;19894;48.452;11.494;2022-07-10T08:59:57;22.50;53.10
33564;DHT22;19894;48.452;11.494;2022-07-10T09:02:23;22.50;53.00
33564;DHT22;19894;48.452;11.494;2022-07-10T09:04:48;22.50;53.40
33564;DHT22;19894;48.452;11.494;2022-07-10T09:07:14;22.50;52.80
33564;DHT22;19894;48.452;11.494;2022-07-10T09:09:52;22.60;52.80
33564;DHT22;19894;48.452;11.494;2022-07-10T09:12:20;22.50;52.70
33564;DHT22;19894;48.452;11.494;2022-07-10T09:14:46;22.50;52.70
33564;DHT22;19894;48.452;11.494;2022-07-10T09:17:12;22.50;52.70
33564;DHT22;19894;48.452;11.494;2022-07-10T09:19:39;22.50;52.70
33564;DHT22;19894;48.452;11.494;2022-07-10T09:22:08;22.50;52.60
33564;DHT22;19894;48.452;11.494;2022-07-10T09:24:39;22.50;52.60
33564;DHT22;19894;48.452;11.494;2022-07-10T09:27:05;22.50;52.60
33564;DHT22;19894;48.452;11.494;2022-07-10T09:29:32;22.50;52.50
33564;DHT22;19894;48.452;11.494;2022-07-10T09:32:02;22.50;52.50
33564;DHT22;19894;48.452;11.494;2022-07-10T09:40:01;22.50;52.40
33564;DHT22;19894;48.452;11.494;2022-07-10T09:42:41;22.50;52.40
33564;DHT22;19894;48.452;11.494;2022-07-10T09:50:31;22.50;52.10
33564;DHT22;19894;48.452;11.494;2022-07-10T09:53:01;22.50;52.10
33564;DHT22;19894;48.452;11.494;2022-07-10T09:55:30;22.50;52.00
33564;DHT22;19894;48.452;11.494;2022-07-10T09:58:02;22.50;52.00
33564;DHT22;19894;48.452;11.494;2022-07-10T10:00:30;22.50;52.00
33564;DHT22;19894;48.452;11.494;2022-07-10T10:03:04;22.50;51.90
33564;DHT22;19894;48.452;11.494;2022-07-10T10:06:03;22.50;51.80
33564;DHT22;19894;48.452;11.494;2022-07-10T10:09:06;22.50;51.90
33564;DHT22;19894;48.452;11.494;2022-07-10T10:11:35;22.50;51.90
33564;DHT22;19894;48.452;11.494;2022-07-10T10:14:02;22.50;51.90
33564;DHT22;19894;48.452;11.494;2022-07-10T10:16:29;22.50;51.90
33564;DHT22;19894;48.452;11.494;2022-07-10T10:18:55;22.50;51.80
33564;DHT22;19894;48.452;11.494;2022-07-10T10:21:40;22.50;51.90
33564;DHT22;19894;48.452;11.494;2022-07-10T10:24:06;22.50;51.80
33564;DHT22;19894;48.452;11.494;2022-07-10T10:26:32;22.50;51.70
33564;DHT22;19894;48.452;11.494;2022-07-10T10:29:01;22.50;51.70
33564;DHT22;19894;48.452;11.494;2022-07-10T10:31:28;22.50;51.60
33564;DHT22;19894;48.452;11.494;2022-07-10T10:33:55;22.50;51.60
33564;DHT22;19894;48.452;11.494;2022-07-10T10:39:18;22.50;51.40
33564;DHT22;19894;48.452;11.494;2022-07-10T10:41:57;22.50;51.20
33564;DHT22;19894;48.452;11.494;2022-07-10T10:44:27;22.40;51.20
33564;DHT22;19894;48.452;11.494;2022-07-10T10:46:59;22.50;51.10
33564;DHT22;19894;48.452;11.494;2022-07-10T10:49:54;22.50;51.10
33564;DHT22;19894;48.452;11.494;2022-07-10T10:52:22;22.50;51.00
33564;DHT22;19894;48.452;11.494;2022-07-10T11:00:02;22.50;50.30
33564;DHT22;19894;48.452;11.494;2022-07-10T11:02:34;22.50;50.30
33564;DHT22;19894;48.452;11.494;2022-07-10T11:08:02;22.50;50.10
33564;DHT22;19894;48.452;11.494;2022-07-10T11:10:32;22.50;50.10
33564;DHT22;19894;48.452;11.494;2022-07-10T11:13:17;22.50;50.10
33564;DHT22;19894;48.452;11.494;2022-07-10T11:15:49;22.50;50.10
33564;DHT22;19894;48.452;11.494;2022-07-10T11:18:19;22.50;50.00
33564;DHT22;19894;48.452;11.494;2022-07-10T11:20:49;22.50;50.00
33564;DHT22;19894;48.452;11.494;2022-07-10T11:26:24;22.50;50.00
33564;DHT22;19894;48.452;11.494;2022-07-10T11:29:01;22.50;50.00
33564;DHT22;19894;48.452;11.494;2022-07-10T11:31:28;22.50;49.90
33564;DHT22;19894;48.452;11.494;2022-07-10T11:33:56;22.40;49.90
33564;DHT22;19894;48.452;11.494;2022-07-10T11:36:23;22.50;49.90
33564;DHT22;19894;48.452;11.494;2022-07-10T11:39:04;22.40;49.80
33564;DHT22;19894;48.452;11.494;2022-07-10T11:41:31;22.40;49.60
33564;DHT22;19894;48.452;11.494;2022-07-10T11:43:59;22.40;49.50
33564;DHT22;19894;48.452;11.494;2022-07-10T11:46:27;22.40;49.60
33564;DHT22;19894;48.452;11.494;2022-07-10T11:48:53;22.40;49.50
33564;DHT22;19894;48.452;11.494;2022-07-10T11:51:28;22.40;49.60
33564;DHT22;19894;48.452;11.494;2022-07-10T11:56:24;22.40;49.30
33564;DHT22;19894;48.452;11.494;2022-07-10T11:59:04;22.40;49.30
33564;DHT22;19894;48.452;11.494;2022-07-10T12:01:31;22.40;49.10
33564;DHT22;19894;48.452;11.494;2022-07-10T12:06:25;22.50;49.10
33564;DHT22;19894;48.452;11.494;2022-07-10T12:08:51;22.50;48.80
33564;DHT22;19894;48.452;11.494;2022-07-10T12:11:18;22.50;48.90
33564;DHT22;19894;48.452;11.494;2022-07-10T12:13:45;22.50;48.90
33564;DHT22;19894;48.452;11.494;2022-07-10T12:16:12;22.50;48.90
33564;DHT22;19894;48.452;11.494;2022-07-10T12:18:37;22.50;48.80
33564;DHT22;19894;48.452;11.494;2022-07-10T12:21:06;22.50;48.80
33564;DHT22;19894;48.452;11.494;2022-07-10T12:23:32;22.40;48.70
33564;DHT22;19894;48.452;11.494;2022-07-10T12:26:00;22.50;48.70
33564;DHT22;19894;48.452;11.494;2022-07-10T12:28:28;22.50;48.80
33564;DHT22;19894;48.452;11.494;2022-07-10T12:30:54;22.40;48.60
33564;DHT22;19894;48.452;11.494;2022-07-10T12:33:21;22.40;48.60
33564;DHT22;19894;48.452;11.494;2022-07-10T12:35:53;22.40;48.60
33564;DHT22;19894;48.452;11.494;2022-07-10T12:38:21;22.40;48.60
33564;DHT22;19894;48.452;11.494;2022-07-10T12:40:47;22.40;48.70
33564;DHT22;19894;48.452;11.494;2022-07-10T12:43:27;22.40;48.60
33564;DHT22;19894;48.452;11.494;2022-07-10T12:46:13;22.40;48.50
33564;DHT22;19894;48.452;11.494;2022-07-10T12:48:41;22.40;48.50
33564;DHT22;19894;48.452;11.494;2022-07-10T12:51:43;22.40;48.40
33564;DHT22;19894;48.452;11.494;2022-07-10T12:54:29;22.40;48.50
33564;DHT22;19894;48.452;11.494;2022-07-10T12:56:58;22.40;48.50
33564;DHT22;19894;48.452;11.494;2022-07-10T12:59:24;22.40;48.30
33564;DHT22;19894;48.452;11.494;2022-07-10T13:01:49;22.40;48.30
33564;DHT22;19894;48.452;11.494;2022-07-10T13:04:23;22.40;48.00
33564;DHT22;19894;48.452;11.494;2022-07-10T13:06:50;22.40;48.00
33564;DHT22;19894;48.452;11.494;2022-07-10T13:09:25;22.40;48.10
33564;DHT22;19894;48.452;11.494;2022-07-10T13:11:53;22.50;47.90
33564;DHT22;19894;48.452;11.494;2022-07-10T13:14:19;22.50;47.90
33564;DHT22;19894;48.452;11.494;2022-07-10T13:16:45;22.50;48.10
33564;DHT22;19894;48.452;11.494;2022-07-10T13:19:11;22.50;48.00
33564;DHT22;19894;48.452;11.494;2022-07-10T13:21:37;22.50;47.90
33564;DHT22;19894;48.452;11.494;2022-07-10T13:24:06;22.50;47.90
33564;DHT22;19894;48.452;11.494;2022-07-10T13:26:32;22.40;47.90
33564;DHT22;19894;48.452;11.494;2022-07-10T13:28:58;22.40;47.80
33564;DHT22;19894;48.452;11.494;2022-07-10T13:31:24;22.40;47.80
33564;DHT22;19894;48.452;11.494;2022-07-10T13:33:50;22.40;47.80
33564;DHT22;19894;48.452;11.494;2022-07-10T13:36:15;22.40;47.80
33564;DHT22;19894;48.452;11.494;2022-07-10T13:38:41;22.40;47.80
33564;DHT22;19894;48.452;11.494;2022-07-10T13:41:07;22.40;47.80
33564;DHT22;19894;48.452;11.494;2022-07-10T13:43:33;22.40;47.70
33564;DHT22;19894;48.452;11.494;2022-07-10T13:46:00;22.40;47.60
33564;DHT22;19894;48.452;11.494;2022-07-10T13:48:27;22.40;47.70
33564;DHT22;19894;48.452;11.494;2022-07-10T13:50:53;22.40;47.80
33564;DHT22;19894;48.452;11.494;2022-07-10T13:53:19;22.40;47.70
33564;DHT22;19894;48.452;11.494;2022-07-10T13:55:45;22.40;47.80
33564;DHT22;19894;48.452;11.494;2022-07-10T13:58:11;22.40;48.00
33564;DHT22;19894;48.452;11.494;2022-07-10T14:00:38;22.40;47.80
33564;DHT22;19894;48.452;11.494;2022-07-10T14:03:04;22.40;47.60
33564;DHT22;19894;48.452;11.494;2022-07-10T14:05:30;22.40;47.50
33564;DHT22;19894;48.452;11.494;2022-07-10T14:07:58;22.40;47.30
33564;DHT22;19894;48.452;11.494;2022-07-10T14:10:23;22.40;47.40
33564;DHT22;19894;48.452;11.494;2022-07-10T14:12:49;22.40;47.20
33564;DHT22;19894;48.452;11.494;2022-07-10T14:15:15;22.40;47.30
33564;DHT22;19894;48.452;11.494;2022-07-10T14:17:41;22.40;47.10
33564;DHT22;19894;48.452;11.494;2022-07-10T14:20:07;22.40;47.10
33564;DHT22;19894;48.452;11.494;2022-07-10T14:22:33;22.50;47.20
33564;DHT22;19894;48.452;11.494;2022-07-10T14:24:58;22.50;47.00
33564;DHT22;19894;48.452;11.494;2022-07-10T14:27:25;22.50;46.90
33564;DHT22;19894;48.452;11.494;2022-07-10T14:29:53;22.50;47.00
33564;DHT22;19894;48.452;11.494;2022-07-10T14:32:19;22.50;47.10
33564;DHT22;19894;48.452;11.494;2022-07-10T14:34:44;22.40;47.00
33564;DHT22;19894;48.452;11.494;2022-07-10T14:37:10;22.40;47.10
33564;DHT22;19894;48.452;11.494;2022-07-10T14:39:35;22.40;46.90
33564;DHT22;19894;48.452;11.494;2022-07-10T14:42:02;22.40;46.80
33564;DHT22;19894;48.452;11.494;2022-07-10T14:44:28;22.40;46.90
33564;DHT22;19894;48.452;11.494;2022-07-10T14:46:53;22.40;47.00
33564;DHT22;19894;48.452;11.494;2022-07-10T14:49:19;22.40;46.90
33564;DHT22;19894;48.452;11.494;2022-07-10T14:51:44;22.40;47.10
33564;DHT22;19894;48.452;11.494;2022-07-10T14:54:10;22.40;46.90
33564;DHT22;19894;48.452;11.494;2022-07-10T14:56:36;22.40;46.80
33564;DHT22;19894;48.452;11.494;2022-07-10T14:59:02;22.40;46.80
33564;DHT22;19894;48.452;11.494;2022-07-10T15:01:28;22.40;47.50
33564;DHT22;19894;48.452;11.494;2022-07-10T15:03:54;22.40;46.80
33564;DHT22;19894;48.452;11.494;2022-07-10T15:06:21;22.40;46.70
33564;DHT22;19894;48.452;11.494;2022-07-10T15:08:47;22.40;46.70
33564;DHT22;19894;48.452;11.494;2022-07-10T15:11:19;22.40;46.40
33564;DHT22;19894;48.452;11.494;2022-07-10T15:13:47;22.40;46.30
33564;DHT22;19894;48.452;11.494;2022-07-10T15:16:13;22.40;46.40
33564;DHT22;19894;48.452;11.494;2022-07-10T15:18:39;22.40;46.30
33564;DHT22;19894;48.452;11.494;2022-07-10T15:21:04;22.40;46.30
33564;DHT22;19894;48.452;11.494;2022-07-10T15:23:30;22.40;46.40
33564;DHT22;19894;48.452;11.494;2022-07-10T15:25:56;22.40;46.40
33564;DHT22;19894;48.452;11.494;2022-07-10T15:28:21;22.40;46.30
33564;DHT22;19894;48.452;11.494;2022-07-10T15:30:47;22.40;46.20
33564;DHT22;19894;48.452;11.494;2022-07-10T15:33:12;22.40;46.20
33564;DHT22;19894;48.452;11.494;2022-07-10T15:35:38;22.40;46.20
33564;DHT22;19894;48.452;11.494;2022-07-10T15:38:03;22.40;46.20
33564;DHT22;19894;48.452;11.494;2022-07-10T15:40:30;22.40;46.10
33564;DHT22;19894;48.452;11.494;2022-07-10T15:42:56;22.40;46.10
33564;DHT22;19894;48.452;11.494;2022-07-10T15:45:23;22.40;46.00
33564;DHT22;19894;48.452;11.494;2022-07-10T15:47:49;22.40;46.10